sensor_id;sensor_type;location;lat;lon;timestamp;P1;durP1;ratioP1;P2;durP2;ratioP2
38037;SDS011;23843;51.320;12.340;2023-04-01T04:30:26;0.10;;;0.10;;
38037;SDS011;23843;51.320;12.340;2023-04-01T04:32:53;0.70;;;0.70;;
38037;SDS011;23843;51.320;12.340;2023-04-01T04:35:18;0.10;;;0.10;;
38037;SDS011;23843;51.320;12.340;2023-04-01T04:37:47;0.60;;;0.60;;
38037;SDS011;23843;51.320;12.340;2023-04-01T04:40:12;0.10;;;0.10;;
38037;SDS011;23843;51.320;12.340;2023-04-01T04:42:38;0.10;;;0.10;;
38037;SDS011;23843;51.320;12.340;2023-04-01T04:45:03;0.10;;;0.10;;
38037;SDS011;23843;51.320;12.340;2023-04-01T04:47:31;0.10;;;0.10;;
38037;SDS011;23843;51.320;12.340;2023-04-01T04:49:56;0.10;;;0.10;;
38037;SDS011;23843;51.320;12.340;2023-04-01T04:52:22;0.00;;;0.00;;
38037;SDS011;23843;51.320;12.340;2023-04-01T04:54:47;0.10;;;0.10;;
38037;SDS011;23843;51.320;12.340;2023-04-01T04:57:13;0.00;;;0.00;;
38037;SDS011;23843;51.320;12.340;2023-04-01T04:59:38;0.13;;;0.10;;
38037;SDS011;23843;51.320;12.340;2023-04-01T05:02:03;0.10;;;0.10;;
38037;SDS011;23843;51.320;12.340;2023-04-01T05:04:30;0.10;;;0.10;;
38037;SDS011;23843;51.320;12.340;2023-04-01T05:06:59;0.10;;;0.10;;
38037;SDS011;23843;51.320;12.340;2023-04-01T05:09:25;0.20;;;0.10;;
38037;SDS011;23843;51.320;12.340;2023-04-01T05:11:50;0.10;;;0.10;;
38037;SDS011;23843;51.320;12.340;2023-04-01T05:14:16;0.10;;;0.10;;
38037;SDS011;23843;51.320;12.340;2023-04-01T05:16:41;0.40;;;0.17;;
38037;SDS011;23843;51.320;12.340;2023-04-01T05:19:07;0.30;;;0.20;;
38037;SDS011;23843;51.320;12.340;2023-04-01T05:21:34;0.10;;;0.10;;
38037;SDS011;23843;51.320;12.340;2023-04-01T05:23:59;0.17;;;0.17;;
38037;SDS011;23843;51.320;12.340;2023-04-01T05:26:25;0.10;;;0.10;;
38037;SDS011;23843;51.320;12.340;2023-04-01T05:28:50;0.33;;;0.20;;
38037;SDS011;23843;51.320;12.340;2023-04-01T05:31:16;0.10;;;0.10;;
38037;SDS011;23843;51.320;12.340;2023-04-01T05:33:41;0.00;;;0.00;;
38037;SDS011;23843;51.320;12.340;2023-04-01T05:36:07;0.10;;;0.10;;
38037;SDS011;23843;51.320;12.340;2023-04-01T05:38:35;0.20;;;0.10;;
38037;SDS011;23843;51.320;12.340;2023-04-01T05:41:01;0.10;;;0.10;;
38037;SDS011;23843;51.320;12.340;2023-04-01T05:43:27;0.27;;;0.20;;
38037;SDS011;23843;51.320;12.340;2023-04-01T05:45:53;0.00;;;0.00;;
38037;SDS011;23843;51.320;12.340;2023-04-01T05:48:18;0.20;;;0.20;;
38037;SDS011;23843;51.320;12.340;2023-04-01T05:50:44;0.17;;;0.17;;
38037;SDS011;23843;51.320;12.340;2023-04-01T05:53:09;0.10;;;0.10;;
38037;SDS011;23843;51.320;12.340;2023-04-01T05:55:36;0.23;;;0.20;;
38037;SDS011;23843;51.320;12.340;2023-04-01T05:58:02;0.20;;;0.20;;
38037;SDS011;23843;51.320;12.340;2023-04-01T06:00:27;0.00;;;0.00;;
38037;SDS011;23843;51.320;12.340;2023-04-01T06:02:53;1.07;;;0.60;;
38037;SDS011;23843;51.320;12.340;2023-04-01T06:05:19;0.10;;;0.10;;
38037;SDS011;23843;51.320;12.340;2023-04-01T06:07:47;0.10;;;0.10;;
38037;SDS011;23843;51.320;12.340;2023-04-01T06:10:13;0.10;;;0.10;;
38037;SDS011;23843;51.320;12.340;2023-04-01T06:12:53;0.23;;;0.10;;
38037;SDS011;23843;51.320;12.340;2023-04-01T06:15:34;0.10;;;0.10;;
38037;SDS011;23843;51.320;12.340;2023-04-01T06:21:07;0.10;;;0.10;;
38037;SDS011;23843;51.320;12.340;2023-04-01T06:23:47;0.10;;;0.10;;
38037;SDS011;23843;51.320;12.340;2023-04-01T06:26:27;0.10;;;0.10;;
38037;SDS011;23843;51.320;12.340;2023-04-01T06:32:19;0.10;;;0.10;;
38037;SDS011;23843;51.320;12.340;2023-04-01T06:40:41;0.50;;;0.50;;
38037;SDS011;23843;51.320;12.340;2023-04-01T06:43:18;0.13;;;0.13;;
38037;SDS011;23843;51.320;12.340;2023-04-01T06:45:51;0.17;;;0.10;;
38037;SDS011;23843;51.320;12.340;2023-04-01T06:48:31;0.10;;;0.10;;
38037;SDS011;23843;51.320;12.340;2023-04-01T06:51:09;0.10;;;0.10;;
38037;SDS011;23843;51.320;12.340;2023-04-01T06:53:44;0.20;;;0.20;;
38037;SDS011;23843;51.320;12.340;2023-04-01T06:56:20;0.30;;;0.20;;
38037;SDS011;23843;51.320;12.340;2023-04-01T06:59:02;0.30;;;0.20;;
38037;SDS011;23843;51.320;12.340;2023-04-01T07:01:32;0.73;;;0.10;;
38037;SDS011;23843;51.320;12.340;2023-04-01T07:04:04;0.20;;;0.20;;
38037;SDS011;23843;51.320;12.340;2023-04-01T07:06:35;0.10;;;0.10;;
38037;SDS011;23843;51.320;12.340;2023-04-01T07:09:04;0.23;;;0.20;;
38037;SDS011;23843;51.320;12.340;2023-04-01T07:11:34;0.10;;;0.10;;
38037;SDS011;23843;51.320;12.340;2023-04-01T07:14:02;0.50;;;0.40;;
38037;SDS011;23843;51.320;12.340;2023-04-01T07:16:36;0.60;;;0.30;;
38037;SDS011;23843;51.320;12.340;2023-04-01T07:19:08;0.83;;;0.40;;
38037;SDS011;23843;51.320;12.340;2023-04-01T07:21:40;0.57;;;0.40;;
38037;SDS011;23843;51.320;12.340;2023-04-01T07:24:10;0.33;;;0.30;;
38037;SDS011;23843;51.320;12.340;2023-04-01T07:26:41;0.60;;;0.50;;
38037;SDS011;23843;51.320;12.340;2023-04-01T07:29:09;1.40;;;0.70;;
38037;SDS011;23843;51.320;12.340;2023-04-01T07:34:30;2.57;;;1.80;;
38037;SDS011;23843;51.320;12.340;2023-04-01T07:37:05;1.73;;;1.23;;
38037;SDS011;23843;51.320;12.340;2023-04-01T07:39:36;1.37;;;1.03;;
38037;SDS011;23843;51.320;12.340;2023-04-01T07:42:09;0.77;;;0.60;;
38037;SDS011;23843;51.320;12.340;2023-04-01T07:44:45;1.13;;;0.50;;
38037;SDS011;23843;51.320;12.340;2023-04-01T07:47:39;0.47;;;0.47;;
38037;SDS011;23843;51.320;12.340;2023-04-01T07:50:19;0.77;;;0.70;;
38037;SDS011;23843;51.320;12.340;2023-04-01T07:52:52;2.93;;;1.73;;
38037;SDS011;23843;51.320;12.340;2023-04-01T07:55:27;1.60;;;1.17;;
38037;SDS011;23843;51.320;12.340;2023-04-01T07:58:02;1.00;;;0.73;;
38037;SDS011;23843;51.320;12.340;2023-04-01T08:00:36;0.90;;;0.60;;
38037;SDS011;23843;51.320;12.340;2023-04-01T08:03:13;0.83;;;0.60;;
38037;SDS011;23843;51.320;12.340;2023-04-01T08:05:48;0.67;;;0.50;;
38037;SDS011;23843;51.320;12.340;2023-04-01T08:08:23;1.60;;;0.50;;
38037;SDS011;23843;51.320;12.340;2023-04-01T08:10:57;1.23;;;0.40;;
38037;SDS011;23843;51.320;12.340;2023-04-01T08:13:34;0.60;;;0.40;;
38037;SDS011;23843;51.320;12.340;2023-04-01T08:16:09;0.80;;;0.50;;
38037;SDS011;23843;51.320;12.340;2023-04-01T08:18:44;0.70;;;0.50;;
38037;SDS011;23843;51.320;12.340;2023-04-01T08:21:20;3.17;;;2.60;;
38037;SDS011;23843;51.320;12.340;2023-04-01T08:23:49;2.43;;;1.70;;
38037;SDS011;23843;51.320;12.340;2023-04-01T08:26:18;2.20;;;1.30;;
38037;SDS011;23843;51.320;12.340;2023-04-01T08:28:54;1.13;;;0.60;;
38037;SDS011;23843;51.320;12.340;2023-04-01T08:31:23;1.10;;;0.60;;
38037;SDS011;23843;51.320;12.340;2023-04-01T08:33:54;0.93;;;0.60;;
38037;SDS011;23843;51.320;12.340;2023-04-01T08:36:22;1.10;;;0.50;;
38037;SDS011;23843;51.320;12.340;2023-04-01T08:38:54;1.27;;;0.47;;
38037;SDS011;23843;51.320;12.340;2023-04-01T08:44:34;0.50;;;0.40;;
38037;SDS011;23843;51.320;12.340;2023-04-01T08:47:24;0.83;;;0.60;;
38037;SDS011;23843;51.320;12.340;2023-04-01T08:50:19;1.30;;;0.63;;
38037;SDS011;23843;51.320;12.340;2023-04-01T08:52:56;0.83;;;0.40;;
38037;SDS011;23843;51.320;12.340;2023-04-01T08:55:31;1.47;;;0.60;;
38037;SDS011;23843;51.320;12.340;2023-04-01T08:58:11;1.37;;;0.47;;
38037;SDS011;23843;51.320;12.340;2023-04-01T09:01:02;1.23;;;0.40;;
38037;SDS011;23843;51.320;12.340;2023-04-01T09:03:41;0.30;;;0.20;;
38037;SDS011;23843;51.320;12.340;2023-04-01T09:12:18;0.50;;;0.40;;
38037;SDS011;23843;51.320;12.340;2023-04-01T09:15:01;3.10;;;1.80;;
38037;SDS011;23843;51.320;12.340;2023-04-01T09:20:52;4.73;;;2.23;;
38037;SDS011;23843;51.320;12.340;2023-04-01T09:23:33;9.93;;;4.77;;
38037;SDS011;23843;51.320;12.340;2023-04-01T09:26:26;12.87;;;6.87;;
38037;SDS011;23843;51.320;12.340;2023-04-01T09:29:05;7.03;;;4.37;;
38037;SDS011;23843;51.320;12.340;2023-04-01T09:31:47;3.00;;;2.20;;
38037;SDS011;23843;51.320;12.340;2023-04-01T09:37:25;2.50;;;1.10;;
38037;SDS011;23843;51.320;12.340;2023-04-01T09:40:17;2.10;;;0.90;;
38037;SDS011;23843;51.320;12.340;2023-04-01T09:42:51;0.70;;;0.60;;
38037;SDS011;23843;51.320;12.340;2023-04-01T09:45:40;0.60;;;0.57;;
38037;SDS011;23843;51.320;12.340;2023-04-01T09:48:30;0.27;;;0.27;;
38037;SDS011;23843;51.320;12.340;2023-04-01T09:51:15;0.20;;;0.20;;
38037;SDS011;23843;51.320;12.340;2023-04-01T09:53:57;1.03;;;0.30;;
38037;SDS011;23843;51.320;12.340;2023-04-01T10:05:39;0.77;;;0.50;;
38037;SDS011;23843;51.320;12.340;2023-04-01T10:08:36;0.67;;;0.33;;
38037;SDS011;23843;51.320;12.340;2023-04-01T10:14:24;0.90;;;0.30;;
38037;SDS011;23843;51.320;12.340;2023-04-01T10:17:08;0.20;;;0.20;;
38037;SDS011;23843;51.320;12.340;2023-04-01T10:19:56;0.33;;;0.23;;
38037;SDS011;23843;51.320;12.340;2023-04-01T10:22:50;0.30;;;0.30;;
38037;SDS011;23843;51.320;12.340;2023-04-01T10:25:53;0.30;;;0.30;;
38037;SDS011;23843;51.320;12.340;2023-04-01T10:28:53;1.07;;;0.60;;
38037;SDS011;23843;51.320;12.340;2023-04-01T10:31:38;0.63;;;0.50;;
38037;SDS011;23843;51.320;12.340;2023-04-01T10:34:24;0.70;;;0.40;;
38037;SDS011;23843;51.320;12.340;2023-04-01T10:37:22;0.50;;;0.40;;
38037;SDS011;23843;51.320;12.340;2023-04-01T10:43:31;0.90;;;0.47;;
38037;SDS011;23843;51.320;12.340;2023-04-01T10:49:25;2.90;;;2.20;;
38037;SDS011;23843;51.320;12.340;2023-04-01T10:55:05;0.90;;;0.70;;
38037;SDS011;23843;51.320;12.340;2023-04-01T10:57:57;0.57;;;0.43;;
38037;SDS011;23843;51.320;12.340;2023-04-01T11:01:04;0.30;;;0.30;;
38037;SDS011;23843;51.320;12.340;2023-04-01T11:04:01;0.30;;;0.30;;
38037;SDS011;23843;51.320;12.340;2023-04-01T11:07:09;0.30;;;0.20;;
38037;SDS011;23843;51.320;12.340;2023-04-01T11:13:41;0.80;;;0.20;;
38037;SDS011;23843;51.320;12.340;2023-04-01T11:16:32;0.40;;;0.33;;
38037;SDS011;23843;51.320;12.340;2023-04-01T11:22:33;1.00;;;0.50;;
38037;SDS011;23843;51.320;12.340;2023-04-01T11:25:34;1.23;;;0.30;;
38037;SDS011;23843;51.320;12.340;2023-04-01T11:34:01;0.97;;;0.50;;
38037;SDS011;23843;51.320;12.340;2023-04-01T11:36:37;0.20;;;0.20;;
38037;SDS011;23843;51.320;12.340;2023-04-01T11:39:14;0.37;;;0.30;;
38037;SDS011;23843;51.320;12.340;2023-04-01T11:41:46;0.20;;;0.20;;
38037;SDS011;23843;51.320;12.340;2023-04-01T11:44:21;0.30;;;0.30;;
38037;SDS011;23843;51.320;12.340;2023-04-01T11:46:56;0.60;;;0.40;;
38037;SDS011;23843;51.320;12.340;2023-04-01T11:52:44;0.77;;;0.67;;
38037;SDS011;23843;51.320;12.340;2023-04-01T11:55:30;1.40;;;0.90;;
38037;SDS011;23843;51.320;12.340;2023-04-01T11:58:08;1.27;;;0.80;;
38037;SDS011;23843;51.320;12.340;2023-04-01T12:03:57;0.63;;;0.40;;
38037;SDS011;23843;51.320;12.340;2023-04-01T12:06:37;0.30;;;0.30;;
38037;SDS011;23843;51.320;12.340;2023-04-01T12:09:12;0.70;;;0.40;;
38037;SDS011;23843;51.320;12.340;2023-04-01T12:11:48;0.30;;;0.23;;
38037;SDS011;23843;51.320;12.340;2023-04-01T12:14:27;0.30;;;0.30;;
38037;SDS011;23843;51.320;12.340;2023-04-01T12:17:02;0.40;;;0.30;;
38037;SDS011;23843;51.320;12.340;2023-04-01T12:19:39;0.10;;;0.10;;
38037;SDS011;23843;51.320;12.340;2023-04-01T12:22:23;0.60;;;0.30;;
38037;SDS011;23843;51.320;12.340;2023-04-01T12:25:03;0.20;;;0.20;;
38037;SDS011;23843;51.320;12.340;2023-04-01T12:27:43;0.77;;;0.20;;
38037;SDS011;23843;51.320;12.340;2023-04-01T12:33:10;0.30;;;0.30;;
38037;SDS011;23843;51.320;12.340;2023-04-01T12:35:58;0.40;;;0.10;;
38037;SDS011;23843;51.320;12.340;2023-04-01T12:38:36;0.43;;;0.30;;
38037;SDS011;23843;51.320;12.340;2023-04-01T12:41:09;0.27;;;0.20;;
38037;SDS011;23843;51.320;12.340;2023-04-01T12:43:52;0.43;;;0.30;;
38037;SDS011;23843;51.320;12.340;2023-04-01T12:46:30;0.90;;;0.50;;
38037;SDS011;23843;51.320;12.340;2023-04-01T12:52:22;0.20;;;0.20;;
38037;SDS011;23843;51.320;12.340;2023-04-01T12:55:06;0.40;;;0.20;;
38037;SDS011;23843;51.320;12.340;2023-04-01T13:01:14;0.40;;;0.40;;
38037;SDS011;23843;51.320;12.340;2023-04-01T13:03:55;0.20;;;0.20;;
38037;SDS011;23843;51.320;12.340;2023-04-01T13:06:50;0.40;;;0.37;;
38037;SDS011;23843;51.320;12.340;2023-04-01T13:09:32;0.57;;;0.57;;
38037;SDS011;23843;51.320;12.340;2023-04-01T13:12:18;0.20;;;0.20;;
38037;SDS011;23843;51.320;12.340;2023-04-01T13:14:58;0.30;;;0.30;;
38037;SDS011;23843;51.320;12.340;2023-04-01T13:17:45;0.67;;;0.23;;
38037;SDS011;23843;51.320;12.340;2023-04-01T13:20:20;0.20;;;0.20;;
38037;SDS011;23843;51.320;12.340;2023-04-01T13:23:01;0.20;;;0.20;;
38037;SDS011;23843;51.320;12.340;2023-04-01T13:25:38;0.57;;;0.40;;
38037;SDS011;23843;51.320;12.340;2023-04-01T13:28:12;0.40;;;0.40;;
38037;SDS011;23843;51.320;12.340;2023-04-01T13:30:44;0.70;;;0.50;;
38037;SDS011;23843;51.320;12.340;2023-04-01T13:33:13;0.30;;;0.30;;
38037;SDS011;23843;51.320;12.340;2023-04-01T13:35:48;0.60;;;0.50;;
38037;SDS011;23843;51.320;12.340;2023-04-01T13:38:28;0.30;;;0.30;;
38037;SDS011;23843;51.320;12.340;2023-04-01T13:41:13;0.40;;;0.33;;
38037;SDS011;23843;51.320;12.340;2023-04-01T13:43:51;0.60;;;0.30;;
38037;SDS011;23843;51.320;12.340;2023-04-01T13:46:28;0.73;;;0.73;;
38037;SDS011;23843;51.320;12.340;2023-04-01T13:49:12;0.23;;;0.20;;
38037;SDS011;23843;51.320;12.340;2023-04-01T13:52:17;0.60;;;0.60;;
38037;SDS011;23843;51.320;12.340;2023-04-01T13:54:58;0.50;;;0.50;;
38037;SDS011;23843;51.320;12.340;2023-04-01T13:57:47;0.30;;;0.30;;
38037;SDS011;23843;51.320;12.340;2023-04-01T14:00:32;0.13;;;0.13;;
38037;SDS011;23843;51.320;12.340;2023-04-01T14:03:09;0.20;;;0.20;;
38037;SDS011;23843;51.320;12.340;2023-04-01T14:05:53;0.10;;;0.10;;
38037;SDS011;23843;51.320;12.340;2023-04-01T14:08:42;0.10;;;0.10;;
38037;SDS011;23843;51.320;12.340;2023-04-01T14:11:22;0.10;;;0.10;;
38037;SDS011;23843;51.320;12.340;2023-04-01T14:14:01;0.17;;;0.10;;
38037;SDS011;23843;51.320;12.340;2023-04-01T14:16:52;0.10;;;0.10;;
38037;SDS011;23843;51.320;12.340;2023-04-01T14:19:37;0.10;;;0.10;;
38037;SDS011;23843;51.320;12.340;2023-04-01T14:22:20;0.10;;;0.10;;
38037;SDS011;23843;51.320;12.340;2023-04-01T14:25:04;0.30;;;0.30;;
38037;SDS011;23843;51.320;12.340;2023-04-01T14:27:51;0.20;;;0.20;;
38037;SDS011;23843;51.320;12.340;2023-04-01T14:30:37;0.20;;;0.20;;
38037;SDS011;23843;51.320;12.340;2023-04-01T14:33:15;0.20;;;0.20;;
38037;SDS011;23843;51.320;12.340;2023-04-01T14:35:50;0.20;;;0.20;;
38037;SDS011;23843;51.320;12.340;2023-04-01T14:38:28;0.10;;;0.10;;
38037;SDS011;23843;51.320;12.340;2023-04-01T14:41:02;0.20;;;0.20;;
38037;SDS011;23843;51.320;12.340;2023-04-01T14:43:47;0.27;;;0.20;;
38037;SDS011;23843;51.320;12.340;2023-04-01T14:46:27;0.20;;;0.20;;
38037;SDS011;23843;51.320;12.340;2023-04-01T14:49:14;0.10;;;0.10;;
38037;SDS011;23843;51.320;12.340;2023-04-01T14:51:43;0.20;;;0.20;;
38037;SDS011;23843;51.320;12.340;2023-04-01T14:54:11;0.10;;;0.10;;
38037;SDS011;23843;51.320;12.340;2023-04-01T14:56:41;0.13;;;0.13;;
38037;SDS011;23843;51.320;12.340;2023-04-01T14:59:09;0.30;;;0.23;;
38037;SDS011;23843;51.320;12.340;2023-04-01T15:01:42;0.30;;;0.30;;
38037;SDS011;23843;51.320;12.340;2023-04-01T15:04:18;0.50;;;0.50;;
38037;SDS011;23843;51.320;12.340;2023-04-01T15:07:11;0.30;;;0.30;;
38037;SDS011;23843;51.320;12.340;2023-04-01T15:09:47;0.30;;;0.30;;
38037;SDS011;23843;51.320;12.340;2023-04-01T15:12:24;0.30;;;0.30;;
38037;SDS011;23843;51.320;12.340;2023-04-01T15:14:57;0.50;;;0.50;;
38037;SDS011;23843;51.320;12.340;2023-04-01T15:17:40;0.50;;;0.50;;
38037;SDS011;23843;51.320;12.340;2023-04-01T15:20:17;1.77;;;0.70;;
38037;SDS011;23843;51.320;12.340;2023-04-01T15:23:01;1.07;;;0.80;;
38037;SDS011;23843;51.320;12.340;2023-04-01T15:25:41;0.70;;;0.70;;
38037;SDS011;23843;51.320;12.340;2023-04-01T15:28:18;1.00;;;0.70;;
38037;SDS011;23843;51.320;12.340;2023-04-01T15:30:53;0.47;;;0.47;;
38037;SDS011;23843;51.320;12.340;2023-04-01T15:33:28;0.40;;;0.40;;
38037;SDS011;23843;51.320;12.340;2023-04-01T15:36:07;0.73;;;0.50;;
38037;SDS011;23843;51.320;12.340;2023-04-01T15:38:48;0.50;;;0.50;;
38037;SDS011;23843;51.320;12.340;2023-04-01T15:41:19;1.10;;;0.93;;
38037;SDS011;23843;51.320;12.340;2023-04-01T15:43:50;0.50;;;0.50;;
38037;SDS011;23843;51.320;12.340;2023-04-01T15:46:21;0.77;;;0.40;;
38037;SDS011;23843;51.320;12.340;2023-04-01T15:49:06;0.60;;;0.40;;
38037;SDS011;23843;51.320;12.340;2023-04-01T15:51:40;0.50;;;0.37;;
38037;SDS011;23843;51.320;12.340;2023-04-01T15:54:23;0.43;;;0.40;;
38037;SDS011;23843;51.320;12.340;2023-04-01T15:56:54;0.30;;;0.30;;
38037;SDS011;23843;51.320;12.340;2023-04-01T15:59:41;0.30;;;0.30;;
38037;SDS011;23843;51.320;12.340;2023-04-01T16:02:20;1.40;;;0.73;;
38037;SDS011;23843;51.320;12.340;2023-04-01T16:04:54;0.90;;;0.70;;
38037;SDS011;23843;51.320;12.340;2023-04-01T16:10:19;1.00;;;0.70;;
38037;SDS011;23843;51.320;12.340;2023-04-01T16:12:59;0.77;;;0.77;;
38037;SDS011;23843;51.320;12.340;2023-04-01T16:15:37;0.97;;;0.83;;
38037;SDS011;23843;51.320;12.340;2023-04-01T16:18:12;1.97;;;1.37;;
38037;SDS011;23843;51.320;12.340;2023-04-01T16:20:50;3.17;;;2.17;;
38037;SDS011;23843;51.320;12.340;2023-04-01T16:23:20;3.03;;;2.07;;
38037;SDS011;23843;51.320;12.340;2023-04-01T16:25:52;2.53;;;1.70;;
38037;SDS011;23843;51.320;12.340;2023-04-01T16:28:23;1.57;;;1.27;;
38037;SDS011;23843;51.320;12.340;2023-04-01T16:30:55;1.13;;;1.00;;
38037;SDS011;23843;51.320;12.340;2023-04-01T16:33:24;1.10;;;1.00;;
38037;SDS011;23843;51.320;12.340;2023-04-01T16:36:05;1.13;;;0.77;;
38037;SDS011;23843;51.320;12.340;2023-04-01T16:38:38;0.40;;;0.40;;
38037;SDS011;23843;51.320;12.340;2023-04-01T16:41:11;0.50;;;0.50;;
38037;SDS011;23843;51.320;12.340;2023-04-01T16:43:42;0.40;;;0.40;;
38037;SDS011;23843;51.320;12.340;2023-04-01T16:46:19;0.30;;;0.30;;
38037;SDS011;23843;51.320;12.340;2023-04-01T16:51:53;0.40;;;0.40;;
38037;SDS011;23843;51.320;12.340;2023-04-01T16:54:28;0.50;;;0.50;;
38037;SDS011;23843;51.320;12.340;2023-04-01T16:57:09;0.50;;;0.40;;
38037;SDS011;23843;51.320;12.340;2023-04-01T16:59:44;0.60;;;0.30;;
38037;SDS011;23843;51.320;12.340;2023-04-01T17:02:13;0.20;;;0.20;;
38037;SDS011;23843;51.320;12.340;2023-04-01T17:04:43;0.20;;;0.20;;
38037;SDS011;23843;51.320;12.340;2023-04-01T17:07:25;0.30;;;0.30;;
38037;SDS011;23843;51.320;12.340;2023-04-01T17:10:06;0.70;;;0.40;;
38037;SDS011;23843;51.320;12.340;2023-04-01T17:12:49;0.50;;;0.30;;
38037;SDS011;23843;51.320;12.340;2023-04-01T17:15:32;0.30;;;0.30;;
38037;SDS011;23843;51.320;12.340;2023-04-01T17:18:04;0.40;;;0.23;;
38037;SDS011;23843;51.320;12.340;2023-04-01T17:20:40;0.20;;;0.20;;
38037;SDS011;23843;51.320;12.340;2023-04-01T17:23:14;0.30;;;0.30;;
38037;SDS011;23843;51.320;12.340;2023-04-01T17:25:49;0.40;;;0.40;;
38037;SDS011;23843;51.320;12.340;2023-04-01T17:28:27;0.60;;;0.50;;
38037;SDS011;23843;51.320;12.340;2023-04-01T17:31:06;1.27;;;0.80;;
38037;SDS011;23843;51.320;12.340;2023-04-01T17:36:38;1.57;;;1.00;;
38037;SDS011;23843;51.320;12.340;2023-04-01T17:39:20;0.97;;;0.87;;
38037;SDS011;23843;51.320;12.340;2023-04-01T17:42:00;1.00;;;0.80;;
38037;SDS011;23843;51.320;12.340;2023-04-01T17:44:34;0.70;;;0.67;;
38037;SDS011;23843;51.320;12.340;2023-04-01T17:47:15;0.80;;;0.70;;
38037;SDS011;23843;51.320;12.340;2023-04-01T17:50:13;0.90;;;0.70;;
38037;SDS011;23843;51.320;12.340;2023-04-01T17:52:47;0.83;;;0.60;;
38037;SDS011;23843;51.320;12.340;2023-04-01T17:55:27;0.83;;;0.60;;
38037;SDS011;23843;51.320;12.340;2023-04-01T17:58:09;0.70;;;0.50;;
38037;SDS011;23843;51.320;12.340;2023-04-01T18:00:47;0.90;;;0.80;;
38037;SDS011;23843;51.320;12.340;2023-04-01T18:03:24;1.50;;;1.40;;
38037;SDS011;23843;51.320;12.340;2023-04-01T18:06:09;1.40;;;1.00;;
38037;SDS011;23843;51.320;12.340;2023-04-01T18:08:46;1.33;;;1.00;;
38037;SDS011;23843;51.320;12.340;2023-04-01T18:11:25;1.60;;;1.37;;
38037;SDS011;23843;51.320;12.340;2023-04-01T18:14:08;2.10;;;1.30;;
38037;SDS011;23843;51.320;12.340;2023-04-01T18:16:55;1.77;;;1.50;;
38037;SDS011;23843;51.320;12.340;2023-04-01T18:19:31;1.87;;;1.40;;
38037;SDS011;23843;51.320;12.340;2023-04-01T18:22:10;1.20;;;1.00;;
38037;SDS011;23843;51.320;12.340;2023-04-01T18:24:44;1.17;;;1.00;;
38037;SDS011;23843;51.320;12.340;2023-04-01T18:27:17;1.63;;;1.50;;
38037;SDS011;23843;51.320;12.340;2023-04-01T18:29:48;1.80;;;1.30;;
38037;SDS011;23843;51.320;12.340;2023-04-01T18:32:23;1.27;;;1.17;;
38037;SDS011;23843;51.320;12.340;2023-04-01T18:34:54;1.40;;;1.30;;
38037;SDS011;23843;51.320;12.340;2023-04-01T18:37:25;2.10;;;1.50;;
38037;SDS011;23843;51.320;12.340;2023-04-01T18:39:57;2.03;;;1.63;;
38037;SDS011;23843;51.320;12.340;2023-04-01T18:42:31;2.77;;;2.00;;
38037;SDS011;23843;51.320;12.340;2023-04-01T18:45:10;2.47;;;1.70;;
38037;SDS011;23843;51.320;12.340;2023-04-01T18:47:44;1.50;;;1.10;;
38037;SDS011;23843;51.320;12.340;2023-04-01T18:50:18;1.53;;;1.17;;
38037;SDS011;23843;51.320;12.340;2023-04-01T18:52:48;1.33;;;1.00;;
38037;SDS011;23843;51.320;12.340;2023-04-01T18:55:30;2.03;;;1.37;;
38037;SDS011;23843;51.320;12.340;2023-04-01T18:58:10;1.87;;;1.20;;
38037;SDS011;23843;51.320;12.340;2023-04-01T19:00:43;1.13;;;0.77;;
38037;SDS011;23843;51.320;12.340;2023-04-01T19:03:16;1.03;;;0.80;;
38037;SDS011;23843;51.320;12.340;2023-04-01T19:05:48;1.20;;;0.90;;
38037;SDS011;23843;51.320;12.340;2023-04-01T19:08:24;0.90;;;0.77;;
38037;SDS011;23843;51.320;12.340;2023-04-01T19:10:53;1.90;;;1.20;;
38037;SDS011;23843;51.320;12.340;2023-04-01T19:13:32;1.73;;;1.10;;
38037;SDS011;23843;51.320;12.340;2023-04-01T19:16:05;1.47;;;1.30;;
38037;SDS011;23843;51.320;12.340;2023-04-01T19:21:33;2.10;;;1.43;;
38037;SDS011;23843;51.320;12.340;2023-04-01T19:27:03;2.43;;;1.97;;
38037;SDS011;23843;51.320;12.340;2023-04-01T19:29:47;2.37;;;1.90;;
38037;SDS011;23843;51.320;12.340;2023-04-01T19:32:25;2.13;;;1.90;;
38037;SDS011;23843;51.320;12.340;2023-04-01T19:35:07;2.20;;;1.90;;
38037;SDS011;23843;51.320;12.340;2023-04-01T19:37:44;2.53;;;1.97;;
38037;SDS011;23843;51.320;12.340;2023-04-01T19:40:19;2.43;;;1.83;;
38037;SDS011;23843;51.320;12.340;2023-04-01T19:43:03;2.00;;;1.80;;
38037;SDS011;23843;51.320;12.340;2023-04-01T19:45:41;2.20;;;1.80;;
38037;SDS011;23843;51.320;12.340;2023-04-01T19:48:14;1.70;;;1.60;;
38037;SDS011;23843;51.320;12.340;2023-04-01T19:50:55;3.27;;;2.20;;
38037;SDS011;23843;51.320;12.340;2023-04-01T19:53:27;2.70;;;2.43;;
38037;SDS011;23843;51.320;12.340;2023-04-01T19:56:00;2.00;;;1.80;;
38037;SDS011;23843;51.320;12.340;2023-04-01T19:58:33;2.47;;;2.00;;
38037;SDS011;23843;51.320;12.340;2023-04-01T20:01:08;4.60;;;3.87;;
38037;SDS011;23843;51.320;12.340;2023-04-01T20:03:40;7.00;;;5.43;;
38037;SDS011;23843;51.320;12.340;2023-04-01T20:06:11;4.10;;;2.73;;
38037;SDS011;23843;51.320;12.340;2023-04-01T20:08:45;2.60;;;2.33;;
38037;SDS011;23843;51.320;12.340;2023-04-01T20:11:27;2.00;;;1.80;;
38037;SDS011;23843;51.320;12.340;2023-04-01T20:14:02;2.33;;;2.13;;
38037;SDS011;23843;51.320;12.340;2023-04-01T20:16:40;3.43;;;1.90;;
38037;SDS011;23843;51.320;12.340;2023-04-01T20:19:27;2.20;;;1.97;;
38037;SDS011;23843;51.320;12.340;2023-04-01T20:21:58;2.27;;;1.80;;
38037;SDS011;23843;51.320;12.340;2023-04-01T20:24:28;2.60;;;2.40;;
38037;SDS011;23843;51.320;12.340;2023-04-01T20:27:01;2.83;;;1.90;;
38037;SDS011;23843;51.320;12.340;2023-04-01T20:29:47;2.27;;;1.90;;
38037;SDS011;23843;51.320;12.340;2023-04-01T20:32:30;2.20;;;2.00;;
38037;SDS011;23843;51.320;12.340;2023-04-01T20:35:31;2.73;;;2.37;;
38037;SDS011;23843;51.320;12.340;2023-04-01T20:38:08;2.43;;;2.10;;
38037;SDS011;23843;51.320;12.340;2023-04-01T20:40:50;2.20;;;2.00;;
38037;SDS011;23843;51.320;12.340;2023-04-01T20:46:19;2.23;;;1.80;;
38037;SDS011;23843;51.320;12.340;2023-04-01T20:48:58;2.47;;;2.00;;
38037;SDS011;23843;51.320;12.340;2023-04-01T20:51:42;2.57;;;2.30;;
38037;SDS011;23843;51.320;12.340;2023-04-01T20:54:16;2.10;;;1.90;;
38037;SDS011;23843;51.320;12.340;2023-04-01T20:56:55;2.70;;;2.37;;
38037;SDS011;23843;51.320;12.340;2023-04-01T20:59:29;3.00;;;2.13;;
38037;SDS011;23843;51.320;12.340;2023-04-01T21:02:14;2.70;;;2.50;;
38037;SDS011;23843;51.320;12.340;2023-04-01T21:05:00;2.40;;;2.20;;
38037;SDS011;23843;51.320;12.340;2023-04-01T21:07:54;2.90;;;2.60;;
38037;SDS011;23843;51.320;12.340;2023-04-01T21:10:29;2.50;;;2.30;;
38037;SDS011;23843;51.320;12.340;2023-04-01T21:13:09;2.70;;;2.50;;
38037;SDS011;23843;51.320;12.340;2023-04-01T21:15:48;3.67;;;3.20;;
38037;SDS011;23843;51.320;12.340;2023-04-01T21:18:27;3.10;;;2.80;;
38037;SDS011;23843;51.320;12.340;2023-04-01T21:21:07;4.03;;;2.90;;
38037;SDS011;23843;51.320;12.340;2023-04-01T21:23:48;3.90;;;2.80;;
38037;SDS011;23843;51.320;12.340;2023-04-01T21:26:38;2.83;;;2.47;;
38037;SDS011;23843;51.320;12.340;2023-04-01T21:29:24;3.47;;;2.70;;
